createdAt,value
2022-12-04T07:29:00.915Z,411.7
2022-12-04T07:31:00.798Z,484.6
2022-12-04T07:32:00.582Z,521.1
2022-12-04T07:33:00.534Z,552.1
2022-12-04T07:34:00.998Z,583.2
2022-12-04T07:36:00.517Z,634.5
2022-12-04T07:37:00.535Z,656.8
2022-12-04T07:38:00.520Z,698.4
2022-12-04T07:39:00.726Z,740.0
2022-12-04T07:40:00.573Z,781.6
2022-12-04T07:41:00.530Z,821.0
2022-12-04T07:42:00.788Z,860.4
2022-12-04T07:43:00.588Z,882.9
2022-12-04T07:44:00.735Z,905.5
2022-12-04T07:45:01.302Z,925.4
2022-12-04T07:46:00.612Z,940.0
2022-12-04T07:47:00.532Z,954.6
2022-12-04T07:48:00.890Z,997.3
2022-12-04T07:49:01.058Z,1039.9
2022-12-04T07:50:00.588Z,1084.7
2022-12-04T07:51:00.531Z,1133.6
2022-12-04T07:52:00.561Z,1182.5
2022-12-04T07:53:00.529Z,1215.5
2022-12-04T07:54:03.912Z,1248.6
2022-12-04T07:55:00.576Z,1281.7
2022-12-04T07:56:00.533Z,1313.2
2022-12-04T07:57:00.530Z,1344.7
2022-12-04T07:58:00.531Z,1394.6
2022-12-04T07:59:05.741Z,1444.5
2022-12-04T08:00:01.200Z,1494.3
2022-12-04T08:01:00.619Z,1602.0
2022-12-04T08:02:00.580Z,1709.7
2022-12-04T08:03:00.532Z,1786.4
2022-12-04T08:04:01.103Z,1863.1
2022-12-04T08:05:00.642Z,1939.9
2022-12-04T08:06:00.533Z,1962.5
2022-12-04T08:07:00.537Z,1985.2
2022-12-04T08:08:00.570Z,2039.9
2022-12-04T08:09:04.863Z,2094.7
2022-12-04T08:10:00.577Z,2149.4
2022-12-04T08:11:00.533Z,2213.2
2022-12-04T08:12:00.538Z,2277.0
2022-12-04T08:13:00.547Z,2298.8
2022-12-04T08:14:00.746Z,2320.6
2022-12-04T08:16:00.536Z,2295.2
2022-12-04T08:17:00.693Z,2256.3
2022-12-04T08:18:00.546Z,2232.5
2022-12-04T08:19:00.771Z,2208.7
2022-12-04T08:20:00.659Z,2184.9
2022-12-04T08:21:00.556Z,2292.0
2022-12-04T08:22:00.541Z,2399.1
2022-12-04T08:23:00.569Z,2531.1
2022-12-04T08:24:00.846Z,2663.1
2022-12-04T08:25:00.761Z,2795.1
2022-12-04T08:26:00.621Z,2901.7
2022-12-04T08:27:00.650Z,3008.2
2022-12-04T08:28:00.550Z,3202.3
2022-12-04T08:29:05.894Z,3396.5
2022-12-04T08:30:01.925Z,3598.9
2022-12-04T08:31:00.672Z,3834.7
2022-12-04T08:32:00.618Z,4070.5
2022-12-04T08:33:00.684Z,4168.5
2022-12-04T08:34:06.063Z,4266.6
2022-12-04T08:35:00.685Z,4364.7
2022-12-04T08:36:00.639Z,4503.5
2022-12-04T08:37:00.544Z,4642.4
2022-12-04T08:38:00.571Z,4848.6
2022-12-04T08:39:00.883Z,5054.8
2022-12-04T08:41:00.570Z,5407.8
2022-12-04T08:42:00.640Z,5554.6
2022-12-04T08:43:00.617Z,5583.0
2022-12-04T08:44:05.828Z,5611.4
2022-12-04T08:46:01.027Z,5579.9
2022-12-04T08:47:00.569Z,5520.1
2022-12-04T08:48:00.628Z,5698.5
2022-12-04T08:49:02.089Z,5877.0
2022-12-04T08:50:00.726Z,6055.5
2022-12-04T08:51:00.633Z,6110.4
2022-12-04T08:52:00.636Z,6165.3
2022-12-04T08:53:00.566Z,6202.5
2022-12-04T08:54:00.835Z,6239.6
2022-12-04T08:55:00.661Z,6276.7
2022-12-04T08:56:00.563Z,6421.5
2022-12-04T08:57:00.628Z,6566.3
2022-12-04T08:58:00.568Z,6618.3
2022-12-04T08:59:01.251Z,6670.3
2022-12-04T09:01:00.698Z,7012.0
2022-12-04T09:02:00.701Z,7301.7
2022-12-04T09:03:00.567Z,7376.5
2022-12-04T09:04:15.693Z,7451.3
2022-12-04T09:05:11.852Z,7565.5
2022-12-04T09:06:00.577Z,7681.5
2022-12-04T09:07:00.543Z,7797.5
2022-12-04T09:08:00.617Z,7996.5
2022-12-04T09:09:00.916Z,8195.6
2022-12-04T09:10:01.175Z,8394.7
2022-12-04T09:11:00.735Z,8402.6
2022-12-04T09:12:00.634Z,8410.5
2022-12-04T09:13:00.556Z,8509.9
2022-12-04T09:14:00.649Z,8609.2
2022-12-04T09:16:00.771Z,8763.9
2022-12-04T09:17:00.591Z,8819.2
2022-12-04T09:18:00.654Z,9031.9
2022-12-04T09:19:00.575Z,9244.5
2022-12-04T09:20:05.146Z,9417.8
2022-12-04T09:21:00.657Z,9669.9
2022-12-04T09:22:00.641Z,9922.1
2022-12-04T09:23:04.907Z,9939.4
2022-12-04T09:24:00.643Z,9956.7
2022-12-04T09:25:00.930Z,9974.1
2022-12-04T09:26:00.703Z,10338.5
2022-12-04T09:27:00.631Z,10703.0
2022-12-04T09:28:00.917Z,10979.0
2022-12-04T09:29:00.627Z,11255.0
2022-12-04T09:31:01.197Z,11493.7
2022-12-04T09:32:00.661Z,11456.3
2022-12-04T09:33:00.915Z,11323.9
2022-12-04T09:34:00.640Z,11191.5
2022-12-04T09:35:01.792Z,11059.1
2022-12-04T09:36:00.728Z,10775.4
2022-12-04T09:37:01.014Z,10491.7
2022-12-04T09:38:00.921Z,10256.7
2022-12-04T09:39:00.846Z,10021.7
2022-12-04T09:40:00.834Z,9786.7
2022-12-04T09:41:00.702Z,9686.3
2022-12-04T09:42:00.947Z,9586.0
2022-12-04T09:43:00.595Z,9449.3
2022-12-04T09:44:00.857Z,9312.5
2022-12-04T09:46:00.699Z,9443.0
2022-12-04T09:47:00.755Z,9710.2
2022-12-04T09:48:00.650Z,10048.7
2022-12-04T09:49:00.584Z,10387.3
2022-12-04T09:50:01.118Z,10725.8
2022-12-04T09:51:00.688Z,11298.0
2022-12-04T09:52:00.602Z,11870.2
2022-12-04T09:53:00.630Z,12901.3
2022-12-04T09:54:00.571Z,13932.5
2022-12-04T09:56:00.589Z,15754.8
2022-12-04T09:57:00.560Z,16546.0
2022-12-04T09:58:02.237Z,17202.3
2022-12-04T09:59:00.581Z,17858.5
2022-12-04T10:01:00.642Z,18944.0
2022-12-04T10:02:00.640Z,19373.2
2022-12-04T10:03:00.666Z,19776.0
2022-12-04T10:04:05.828Z,20178.8
2022-12-04T10:05:01.715Z,20581.6
2022-12-04T10:06:00.692Z,20782.5
2022-12-04T10:07:00.608Z,20983.5
2022-12-04T10:08:00.685Z,20735.9
2022-12-04T10:09:00.644Z,20488.3
2022-12-04T10:10:01.185Z,20240.7
2022-12-04T10:11:00.771Z,19757.6
2022-12-04T10:12:00.618Z,19274.5
2022-12-04T10:13:00.659Z,19417.7
2022-12-04T10:14:00.587Z,19560.9
2022-12-04T10:15:01.708Z,19704.1
2022-12-04T10:16:01.272Z,20946.5
2022-12-04T10:17:00.660Z,22188.8
2022-12-04T10:18:00.681Z,23501.1
2022-12-04T10:19:00.680Z,24813.5
2022-12-04T10:20:00.856Z,26125.8
2022-12-04T10:21:00.725Z,27340.5
2022-12-04T10:22:00.693Z,28555.3
2022-12-04T10:23:00.579Z,29825.1
2022-12-04T10:24:00.683Z,31095.0
2022-12-04T10:25:02.021Z,32364.9
2022-12-04T10:26:06.702Z,33875.5
2022-12-04T10:27:00.607Z,35386.1
2022-12-04T10:28:00.716Z,36662.5
2022-12-04T10:29:00.592Z,37938.9
2022-12-04T10:30:02.009Z,39215.3
2022-12-04T10:31:00.803Z,39563.3
2022-12-04T10:32:00.657Z,39911.4
2022-12-04T10:33:00.686Z,40275.7
2022-12-04T10:34:00.688Z,40640.1
2022-12-04T10:36:00.723Z,40909.6
2022-12-04T10:37:00.582Z,40814.8
2022-12-04T10:38:00.941Z,40609.7
2022-12-04T10:39:00.574Z,40404.5
2022-12-04T10:40:06.758Z,40199.4
2022-12-04T10:41:00.917Z,40101.5
2022-12-04T10:42:00.646Z,40003.5
2022-12-04T10:43:00.749Z,39944.9
2022-12-04T10:44:00.978Z,39886.3
2022-12-04T10:46:00.730Z,38884.3
2022-12-04T10:47:00.779Z,37940.9
2022-12-04T10:48:00.672Z,35822.1
2022-12-04T10:49:00.672Z,33703.2
2022-12-04T10:50:00.939Z,31584.3
2022-12-04T10:51:00.694Z,30024.9
2022-12-04T10:52:00.743Z,28465.5
2022-12-04T10:53:00.597Z,27109.8
2022-12-04T10:54:00.870Z,25754.1
2022-12-04T10:55:01.198Z,24398.3
2022-12-04T10:56:00.750Z,23304.7
2022-12-04T10:57:00.648Z,22211.0
2022-12-04T10:58:00.668Z,21947.7
2022-12-04T10:59:00.872Z,21684.3
2022-12-04T11:01:00.653Z,21003.0
2022-12-04T11:02:06.199Z,20585.0
2022-12-04T11:03:00.603Z,21070.0
2022-12-04T11:04:00.602Z,21555.0
2022-12-04T11:05:01.358Z,22040.0
2022-12-04T11:06:00.626Z,23040.9
2022-12-04T11:07:00.582Z,24041.9
2022-12-04T11:08:00.650Z,25217.8
2022-12-04T11:09:00.581Z,26393.7
2022-12-04T11:10:00.798Z,27569.7
2022-12-04T11:11:00.624Z,28580.1
2022-12-04T11:12:00.618Z,29590.5
2022-12-04T11:13:00.587Z,30171.7
2022-12-04T11:14:00.583Z,30753.0
2022-12-04T11:15:02.464Z,31334.3
2022-12-04T11:16:00.705Z,32791.7
2022-12-04T11:17:00.583Z,34249.1
2022-12-04T11:18:00.620Z,34745.0
2022-12-04T11:19:01.682Z,35240.9
2022-12-04T11:20:02.724Z,35736.9
2022-12-04T11:21:00.640Z,35497.4
2022-12-04T11:22:00.590Z,35257.9
2022-12-04T11:23:00.614Z,34610.8
2022-12-04T11:24:00.592Z,33963.7
2022-12-04T11:25:00.809Z,33316.5
2022-12-04T11:26:05.436Z,32822.7
2022-12-04T11:27:00.837Z,32328.9
2022-12-04T11:28:00.770Z,32282.3
2022-12-04T11:29:00.590Z,32235.7
2022-12-04T11:31:00.693Z,32617.6
2022-12-04T11:32:07.079Z,33046.1
2022-12-04T11:33:00.597Z,34575.1
2022-12-04T11:34:00.587Z,36104.1
2022-12-04T11:35:01.616Z,37633.1
2022-12-04T11:36:00.846Z,39447.7
2022-12-04T11:37:00.588Z,41262.3
2022-12-04T11:38:00.587Z,42355.7
2022-12-04T11:39:00.593Z,43449.1
2022-12-04T11:40:01.626Z,44542.5
2022-12-04T11:41:00.631Z,45237.1
2022-12-04T11:42:00.599Z,45931.8
2022-12-04T11:43:00.613Z,45735.2
2022-12-04T11:44:01.050Z,45538.6
2022-12-04T11:45:01.787Z,45342.0
2022-12-04T11:46:00.628Z,44066.2
2022-12-04T11:47:00.613Z,42790.4
2022-12-04T11:48:00.597Z,40885.7
2022-12-04T11:49:00.594Z,38981.1
2022-12-04T11:51:00.887Z,35375.1
2022-12-04T11:52:00.878Z,33673.7
2022-12-04T11:53:00.595Z,33478.4
2022-12-04T11:54:00.590Z,33283.1
2022-12-04T11:55:00.825Z,33087.7
2022-12-04T11:56:01.660Z,32843.1
2022-12-04T11:57:00.599Z,32598.4
2022-12-04T11:58:00.602Z,31504.7
2022-12-04T11:59:00.610Z,30410.9
2022-12-04T12:01:00.631Z,28803.8
2022-12-04T12:02:00.720Z,28290.4
2022-12-04T12:03:02.015Z,29037.5
2022-12-04T12:04:00.903Z,29784.7
2022-12-04T12:05:00.812Z,30531.8
2022-12-04T12:06:00.637Z,31179.3
2022-12-04T12:07:01.630Z,31826.9
2022-12-04T12:08:02.987Z,31673.3
2022-12-04T12:09:00.614Z,31519.8
2022-12-04T12:10:01.492Z,31366.3
2022-12-04T12:11:00.643Z,30666.6
2022-12-04T12:12:00.607Z,29966.9
2022-12-04T12:13:00.614Z,29692.7
2022-12-04T12:14:00.611Z,29418.4
2022-12-04T12:15:01.565Z,29144.1
2022-12-04T12:16:00.713Z,29180.6
2022-12-04T12:17:00.612Z,29217.1
2022-12-04T12:18:00.602Z,29598.2
2022-12-04T12:19:00.609Z,29979.3
2022-12-04T12:20:00.850Z,30360.5
2022-12-04T12:21:00.655Z,30664.6
2022-12-04T12:22:03.542Z,30968.7
2022-12-04T12:23:00.600Z,30244.3
2022-12-04T12:24:00.603Z,29519.9
2022-12-04T12:25:01.092Z,28795.5
2022-12-04T12:26:00.643Z,28461.3
2022-12-04T12:27:00.612Z,28127.0
2022-12-04T12:28:00.604Z,27958.5
2022-12-04T12:29:00.612Z,27789.9
2022-12-04T12:30:06.862Z,27621.4
2022-12-04T12:31:05.486Z,27377.9
2022-12-04T12:32:00.746Z,27134.3
2022-12-04T12:33:00.617Z,26299.5
2022-12-04T12:34:00.603Z,25464.7
2022-12-04T12:35:00.827Z,24629.9
2022-12-04T12:36:00.873Z,23851.7
2022-12-04T12:37:01.115Z,23073.5
2022-12-04T12:38:00.606Z,23243.1
2022-12-04T12:39:00.659Z,23412.7
2022-12-04T12:40:01.098Z,23582.3
2022-12-04T12:41:00.649Z,23868.8
2022-12-04T12:42:01.028Z,24155.3
2022-12-04T12:43:00.649Z,24295.8
2022-12-04T12:44:00.628Z,24436.3
2022-12-04T12:45:01.704Z,24576.9
2022-12-04T12:46:00.684Z,24204.1
2022-12-04T12:47:00.614Z,23831.4
2022-12-04T12:48:00.637Z,23135.7
2022-12-04T12:49:00.625Z,22440.1
2022-12-04T12:50:00.835Z,21744.4
2022-12-04T12:51:15.301Z,21026.5
2022-12-04T12:52:00.859Z,20308.5
2022-12-04T12:53:00.623Z,20051.5
2022-12-04T12:54:00.722Z,19794.5
2022-12-04T12:55:01.128Z,19537.5
2022-12-04T12:56:05.919Z,19355.9
2022-12-04T12:57:00.899Z,19174.3
2022-12-04T12:58:00.625Z,19395.8
2022-12-04T12:59:00.620Z,19617.3
2022-12-04T13:00:04.029Z,19838.7
2022-12-04T13:01:00.712Z,20049.5
2022-12-04T13:02:01.354Z,20260.2
2022-12-04T13:03:00.698Z,19980.7
2022-12-04T13:04:00.652Z,19701.1
2022-12-04T13:05:01.867Z,19421.6
2022-12-04T13:06:00.684Z,19416.9
2022-12-04T13:07:00.627Z,19412.3
2022-12-04T13:08:00.671Z,19383.9
2022-12-04T13:09:00.619Z,19355.6
2022-12-04T13:10:01.097Z,19327.3
2022-12-04T13:11:00.907Z,19396.7
2022-12-04T13:12:05.620Z,19466.2
2022-12-04T13:13:00.621Z,19982.5
2022-12-04T13:14:00.867Z,20498.7
2022-12-04T13:15:02.606Z,21015.0
2022-12-04T13:16:00.668Z,21540.8
2022-12-04T13:17:00.697Z,22066.6
2022-12-04T13:18:00.620Z,22689.3
2022-12-04T13:19:00.652Z,23312.1
2022-12-04T13:20:04.214Z,23934.8
2022-12-04T13:21:00.668Z,24546.6
2022-12-04T13:22:00.629Z,25158.4
2022-12-04T13:23:00.887Z,25440.3
2022-12-04T13:24:01.656Z,25722.1
2022-12-04T13:25:01.786Z,26004.0
2022-12-04T13:26:00.667Z,25607.6
2022-12-04T13:27:00.623Z,25211.2
2022-12-04T13:28:00.622Z,23799.5
2022-12-04T13:29:00.627Z,22387.7
2022-12-04T13:30:01.682Z,20976.0
2022-12-04T13:31:00.651Z,19679.4
2022-12-04T13:32:00.917Z,18382.8
2022-12-04T13:33:00.623Z,17546.1
2022-12-04T13:34:00.629Z,16709.5
2022-12-04T13:35:00.848Z,15872.8
2022-12-04T13:36:01.036Z,14688.9
2022-12-04T13:37:00.632Z,13504.9
2022-12-04T13:38:00.622Z,12365.5
2022-12-04T13:39:00.630Z,11226.1
2022-12-04T13:40:05.852Z,10086.7
2022-12-04T13:41:00.953Z,9628.5
2022-12-04T13:42:00.642Z,9170.2
2022-12-04T13:43:00.632Z,8965.6
2022-12-04T13:44:04.233Z,8761.0
2022-12-04T13:45:01.726Z,8556.4
2022-12-04T13:46:00.721Z,8453.1
2022-12-04T13:47:01.658Z,8349.9
2022-12-04T13:48:00.639Z,8065.3
2022-12-04T13:49:00.635Z,7780.8
2022-12-04T13:50:07.472Z,7496.3
2022-12-04T13:51:00.672Z,7220.8
2022-12-04T13:52:01.682Z,6945.3
2022-12-04T13:53:01.236Z,6713.5
2022-12-04T13:54:00.913Z,6481.6
2022-12-04T13:55:01.902Z,6249.7
2022-12-04T13:56:04.541Z,5815.1
2022-12-04T13:57:00.643Z,5380.4
2022-12-04T13:58:00.633Z,5209.3
2022-12-04T13:59:00.628Z,5038.3
2022-12-04T14:00:03.783Z,4867.2
2022-12-04T14:01:05.714Z,4978.7
2022-12-04T14:02:05.019Z,5090.3
2022-12-04T14:03:00.771Z,5233.7
2022-12-04T14:04:00.632Z,5377.1
2022-12-04T14:05:01.871Z,5520.5
2022-12-04T14:06:01.773Z,5519.7
2022-12-04T14:07:00.644Z,5518.9
2022-12-04T14:08:04.375Z,5550.7
2022-12-04T14:09:00.745Z,5582.5
2022-12-04T14:10:01.682Z,5614.3
2022-12-04T14:11:00.669Z,5553.8
2022-12-04T14:12:00.663Z,5493.3
2022-12-04T14:13:00.630Z,5461.6
2022-12-04T14:14:05.026Z,5429.9
2022-12-04T14:15:01.932Z,5398.1
2022-12-04T14:16:01.009Z,5146.7
2022-12-04T14:17:00.752Z,4895.3
2022-12-04T14:18:00.642Z,4679.0
2022-12-04T14:19:05.647Z,4462.7
2022-12-04T14:20:06.021Z,4246.3
2022-12-04T14:21:00.661Z,4208.5
2022-12-04T14:22:01.086Z,4170.7
2022-12-04T14:23:00.640Z,4030.8
2022-12-04T14:24:00.668Z,3890.9
2022-12-04T14:25:01.113Z,3750.9
2022-12-04T14:26:01.109Z,3765.1
2022-12-04T14:27:11.486Z,3779.3
2022-12-04T14:28:00.704Z,3782.7
2022-12-04T14:29:00.638Z,3786.1
2022-12-04T14:30:01.635Z,3789.5
2022-12-04T14:31:00.823Z,3745.9
2022-12-04T14:32:00.638Z,3702.2
2022-12-04T14:33:00.642Z,3635.2
2022-12-04T14:34:00.771Z,3568.2
2022-12-04T14:35:01.185Z,3501.2
2022-12-04T14:36:00.866Z,3413.7
2022-12-04T14:37:00.921Z,3326.3
2022-12-04T14:38:00.649Z,3228.3
2022-12-04T14:39:11.640Z,3130.4
2022-12-04T14:41:00.948Z,2920.2
2022-12-04T14:42:03.345Z,2807.9
2022-12-04T14:43:00.987Z,2634.7
2022-12-04T14:44:00.651Z,2461.5
2022-12-04T14:45:03.030Z,2288.3
2022-12-04T14:46:00.719Z,2157.5
2022-12-04T14:47:00.651Z,2026.7
2022-12-04T14:48:00.650Z,1924.3
2022-12-04T14:49:01.029Z,1821.9
2022-12-04T14:50:01.022Z,1719.5
2022-12-04T14:51:00.772Z,1566.1
2022-12-04T14:52:00.782Z,1412.7
2022-12-04T14:53:00.656Z,1304.4
2022-12-04T14:54:00.694Z,1196.1
2022-12-04T14:55:05.908Z,1087.7
2022-12-04T14:56:04.716Z,1000.8
2022-12-04T14:57:00.652Z,913.9
2022-12-04T14:58:00.952Z,834.5
2022-12-04T14:59:00.938Z,755.1
2022-12-04T15:01:00.701Z,612.7
2022-12-04T15:02:00.647Z,549.7
2022-12-04T15:03:00.786Z,513.9
2022-12-04T15:04:00.653Z,478.2
2022-12-04T15:05:01.008Z,442.5
2022-12-04T15:06:01.708Z,427.3
2022-12-04T15:07:00.986Z,412.2
2022-12-04T15:08:00.732Z,389.3
2022-12-04T15:09:00.716Z,366.3
2022-12-04T15:10:01.130Z,343.4
2022-12-04T15:11:00.720Z,316.9
2022-12-04T15:12:00.724Z,290.3
2022-12-04T15:13:00.656Z,274.4
2022-12-04T15:14:00.658Z,258.5
2022-12-04T15:15:01.898Z,242.5
2022-12-04T15:16:00.753Z,226.4
2022-12-04T15:17:00.665Z,210.3
2022-12-04T15:18:00.668Z,191.8
2022-12-04T15:19:00.667Z,173.3
2022-12-04T15:20:00.904Z,154.9
2022-12-04T15:21:00.693Z,136.3
2022-12-04T15:22:00.726Z,117.8
2022-12-04T15:23:00.660Z,108.7
2022-12-04T15:24:00.662Z,99.5
2022-12-04T15:25:00.889Z,90.4
2022-12-04T15:26:00.699Z,81.7
2022-12-04T15:27:00.702Z,73.1
2022-12-04T15:28:00.659Z,65.9
2022-12-04T15:29:00.730Z,58.8
2022-12-04T15:31:00.770Z,46.0
2022-12-04T15:32:00.735Z,40.3
2022-12-04T15:33:00.663Z,36.2
2022-12-04T15:34:05.670Z,32.1
2022-12-04T15:36:01.153Z,24.9
2022-12-04T15:37:00.670Z,21.9
2022-12-04T15:38:00.667Z,19.9
2022-12-04T15:39:00.676Z,17.8
2022-12-04T15:40:06.010Z,15.7
2022-12-04T15:41:00.703Z,14.1
2022-12-04T15:42:00.696Z,12.4
2022-12-04T15:43:00.966Z,10.9
2022-12-04T15:44:01.759Z,9.3
2022-12-04T15:46:00.755Z,6.6
2022-12-04T15:47:00.741Z,5.4
2022-12-04T15:48:00.673Z,4.6
2022-12-04T15:49:00.687Z,3.8
2022-12-04T15:50:00.885Z,3.0
2022-12-04T15:51:00.713Z,2.7
2022-12-04T15:52:00.673Z,2.3
2022-12-04T15:53:00.668Z,2.1
2022-12-04T15:54:05.949Z,1.9
2022-12-04T15:55:01.824Z,1.7
2022-12-04T15:56:00.720Z,1.5
2022-12-04T15:57:00.675Z,1.3
2022-12-04T15:58:00.670Z,1.2
2022-12-04T15:59:00.706Z,1.1
2022-12-04T16:01:00.826Z,0.8
2022-12-04T16:02:00.716Z,0.7
2022-12-04T16:03:00.671Z,0.6
2022-12-04T16:04:00.703Z,0.5
2022-12-04T16:06:00.922Z,0.4
2022-12-04T16:07:00.947Z,0.3
2022-12-04T16:09:00.683Z,0.2
2022-12-04T16:10:03.512Z,0.1
